Time;durP1;ratioP1;P1;durP2;ratioP2;P2;SDS_P1;SDS_P2;PMS_P1;PMS_P2;Temp;Humidity;BMP_temperature;BMP_pressure;BME280_temperature;BME280_humidity;BME280_pressure;Samples;Min_cycle;Max_cycle;Signal;HPM_P1;HPM_P2
2022/09/20 00:01:22;;;;;;;3.40;1.70;;;;;;;16.60;100.00;96677.56;5162615;27;20123;-60
2022/09/20 00:03:53;;;;;;;2.55;1.88;;;;;;;16.16;100.00;96667.50;5168648;27;20082;-61
2022/09/20 00:06:24;;;;;;;2.05;1.85;;;;;;;16.24;100.00;96667.50;5165163;27;20475;-61
2022/09/20 00:08:52;;;;;;;;;;;;;;;16.94;100.00;96668.38;5161517;27;20066;-63
2022/09/20 00:11:22;;;;;;;3.83;1.80;;;;;;;16.94;100.00;96663.84;5166136;27;19950;-60
2022/09/20 00:13:53;;;;;;;1.88;1.73;;;;;;;17.08;100.00;96665.72;5167443;27;20081;-62
2022/09/20 00:16:23;;;;;;;4.20;1.90;;;;;;;16.46;100.00;96662.34;5166119;27;20038;-62
2022/09/20 00:18:55;;;;;;;1.92;1.80;;;;;;;16.84;100.00;96666.75;5156424;27;20074;-61
2022/09/20 00:21:25;;;;;;;2.00;1.65;;;;;;;16.46;100.00;96673.00;5161304;27;20070;-61
2022/09/20 00:23:55;;;;;;;1.75;1.65;;;;;;;16.47;100.00;96675.47;5154477;27;20065;-61
2022/09/20 00:26:24;;;;;;;2.10;1.90;;;;;;;16.69;100.00;96670.34;5166162;27;20452;-61
2022/09/20 00:28:52;;;;;;;4.28;1.80;;;;;;;17.28;100.00;96663.38;5165661;27;20070;-60
2022/09/20 00:31:21;;;;;;;2.15;1.90;;;;;;;17.11;100.00;96669.88;5160930;27;20148;-61
2022/09/20 00:36:36;;;;;;;1.60;1.50;;;;;;;16.35;100.00;96672.41;5157719;27;20073;-60
2022/09/20 00:39:05;;;;;;;2.78;1.92;;;;;;;16.83;100.00;96666.97;5167955;27;20077;-61
2022/09/20 00:41:33;;;;;;;3.42;1.92;;;;;;;17.16;100.00;96664.81;5158570;27;20074;-61
2022/09/20 00:44:02;;;;;;;1.90;1.70;;;;;;;17.10;100.00;96665.53;5173659;27;20503;-61
2022/09/20 00:46:36;;;;;;;3.25;2.00;;;;;;;16.60;100.00;96675.72;5165504;27;20077;-61
2022/09/20 00:49:06;;;;;;;3.03;2.05;;;;;;;17.18;100.00;96670.00;5175226;27;20069;-61
2022/09/20 00:51:38;;;;;;;2.92;2.00;;;;;;;16.50;100.00;96663.66;5168153;27;20421;-60
2022/09/20 00:54:07;;;;;;;3.30;1.70;;;;;;;16.83;100.00;96664.28;5163553;27;20081;-61
2022/09/20 00:56:37;;;;;;;3.75;1.80;;;;;;;16.60;100.00;96666.91;5160170;27;20102;-61
2022/09/20 00:59:11;;;;;;;2.15;1.90;;;;;;;16.96;100.00;96661.00;5154147;27;20074;-61
2022/09/20 01:01:40;;;;;;;2.60;1.80;;;;;;;16.95;100.00;96662.84;5165104;27;20066;-61
2022/09/20 01:04:08;;;;;;;3.17;1.90;;;;;;;16.67;100.00;96662.53;5146491;27;20073;-61
2022/09/20 01:06:38;;;;;;;3.67;2.20;;;;;;;16.89;100.00;96668.06;5174381;27;20084;-60
2022/09/20 01:09:07;;;;;;;4.38;2.10;;;;;;;17.55;100.00;96664.63;5161900;27;20078;-60
2022/09/20 01:11:37;;;;;;;2.28;1.85;;;;;;;17.28;100.00;96662.56;5170906;27;20487;-61
2022/09/20 01:14:05;;;;;;;2.30;2.10;;;;;;;17.59;100.00;96661.59;5167110;27;20084;-61
2022/09/20 01:16:34;;;;;;;5.93;2.30;;;;;;;17.56;100.00;96660.09;5167775;27;20082;-61
2022/09/20 01:19:06;;;;;;;2.78;2.03;;;;;;;17.25;100.00;96663.75;5169435;27;20082;-61
2022/09/20 01:21:34;;;;;;;3.42;1.80;;;;;;;17.61;100.00;96657.69;5147907;27;20333;-61
2022/09/20 01:24:09;;;;;;;4.47;2.20;;;;;;;17.05;100.00;96662.59;5171380;27;20078;-59
2022/09/20 01:26:55;;;;;;;2.50;1.83;;;;;;;16.56;100.00;96662.97;5163708;27;20143;-60
2022/09/20 01:29:35;;;;;;;5.65;2.08;;;;;;;17.23;100.00;96662.25;5163734;27;20081;-60
2022/09/20 01:32:08;;;;;;;2.10;1.90;;;;;;;16.85;100.00;96663.09;5161523;27;20066;-62
2022/09/20 01:34:41;;;;;;;4.05;2.03;;;;;;;17.17;100.00;96655.84;5167434;27;20077;-61
2022/09/20 01:37:16;;;;;;;2.33;2.00;;;;;;;17.65;100.00;96652.81;5165181;27;20085;-61
2022/09/20 01:39:52;;;;;;;3.38;2.00;;;;;;;16.96;100.00;96655.69;5171921;27;20083;-61
2022/09/20 01:42:25;;;;;;;4.80;2.00;;;;;;;17.32;100.00;96653.19;5162000;27;20062;-61
2022/09/20 01:45:00;;;;;;;3.60;2.03;;;;;;;17.29;100.00;96651.69;5163623;27;20069;-61
2022/09/20 01:47:33;;;;;;;2.60;2.00;;;;;;;17.31;100.00;96644.38;5170784;27;20072;-61
2022/09/20 01:50:08;;;;;;;3.40;2.10;;;;;;;16.99;100.00;96642.00;5165301;27;20062;-61
2022/09/20 01:53:14;;;;;;;4.95;2.15;;;;;;;16.95;100.00;96640.72;5167419;27;20070;-59
2022/09/20 01:56:18;;;;;;;2.90;2.05;;;;;;;17.36;100.00;96637.66;5164610;27;21212;-61
2022/09/20 01:59:21;;;;;;;2.55;2.13;;;;;;;17.42;100.00;96639.59;5156792;27;20097;-61
2022/09/20 02:02:18;;;;;;;3.30;2.20;;;;;;;16.92;100.00;96628.56;5176375;27;20069;-62
2022/09/20 02:05:19;;;;;;;5.18;2.20;;;;;;;17.51;100.00;96635.81;5165171;27;20074;-60
2022/09/20 02:08:06;;;;;;;2.85;2.20;;;;;;;16.83;100.00;96643.81;5152411;27;20078;-61
2022/09/20 02:10:41;;;;;;;6.03;2.00;;;;;;;17.19;100.00;96642.31;5164692;27;20082;-60
2022/09/20 02:13:11;;;;;;;3.60;2.05;;;;;;;16.15;100.00;96641.91;5159536;27;20484;-61
2022/09/20 02:16:06;;;;;;;3.93;1.83;;;;;;;16.33;100.00;96645.13;5158926;27;20058;-61
2022/09/20 02:18:47;;;;;;;2.45;2.20;;;;;;;16.54;100.00;96639.16;5159097;27;20085;-60
2022/09/20 02:21:21;;;;;;;2.38;2.00;;;;;;;17.07;100.00;96641.94;5174608;27;20082;-61
2022/09/20 02:23:56;;;;;;;2.08;1.90;;;;;;;17.09;100.00;96634.56;5174811;27;20074;-61
2022/09/20 02:26:33;;;;;;;2.70;2.28;;;;;;;17.35;100.00;96638.69;5160977;27;20082;-59
2022/09/20 02:29:10;;;;;;;2.17;1.90;;;;;;;17.47;100.00;96638.00;5168387;27;20082;-61
2022/09/20 02:32:00;;;;;;;3.25;2.25;;;;;;;16.88;100.00;96643.25;5168082;27;20082;-61
2022/09/20 02:34:44;;;;;;;2.05;1.90;;;;;;;17.13;100.00;96649.19;5177155;27;20073;-60
2022/09/20 02:37:30;;;;;;;2.70;2.03;;;;;;;16.68;100.00;96642.88;5182379;27;20085;-61
2022/09/20 02:40:10;;;;;;;2.67;2.10;;;;;;;16.58;100.00;96652.94;5179322;27;20575;-61
2022/09/20 02:42:43;;;;;;;2.20;2.00;;;;;;;16.47;100.00;96653.34;5165941;27;20086;-61
2022/09/20 02:45:18;;;;;;;2.83;2.08;;;;;;;16.66;100.00;96644.09;5180066;27;20093;-60
2022/09/20 02:47:47;;;;;;;4.30;2.17;;;;;;;17.28;100.00;96652.72;5182251;27;20069;-61
2022/09/20 02:50:25;;;;;;;4.88;2.15;;;;;;;16.89;100.00;96652.06;5174633;27;20555;-61
2022/09/20 02:53:04;;;;;;;2.40;2.20;;;;;;;17.14;100.00;96656.19;5181407;27;20078;-61
2022/09/20 02:55:39;;;;;;;5.78;2.25;;;;;;;16.75;100.00;96651.03;5172471;27;20093;-61
2022/09/20 02:58:21;;;;;;;4.40;2.20;;;;;;;16.97;100.00;96658.19;5164225;27;20082;-61
2022/09/20 03:00:54;;;;;;;2.30;2.10;;;;;;;16.99;100.00;96665.97;5163695;27;20077;-56
2022/09/20 03:03:31;;;;;;;4.35;2.30;;;;;;;17.00;100.00;96657.00;5160253;27;20066;-52
2022/09/20 03:06:07;;;;;;;3.67;2.30;;;;;;;15.94;100.00;96665.63;5166373;27;20572;-55
2022/09/20 03:08:39;;;;;;;4.63;2.40;;;;;;;16.75;100.00;96654.50;5140173;27;20504;-52
2022/09/20 03:11:17;;;;;;;2.40;2.20;;;;;;;16.28;100.00;96659.97;5157480;27;20054;-56
2022/09/20 03:14:03;;;;;;;3.17;2.20;;;;;;;16.60;100.00;96654.44;5161511;27;20058;-55
2022/09/20 03:16:37;;;;;;;4.90;2.35;;;;;;;17.13;100.00;96659.03;5162852;27;20066;-58
2022/09/20 03:19:15;;;;;;;3.72;2.30;;;;;;;16.82;100.00;96652.78;5167980;27;20523;-58
2022/09/20 03:21:52;;;;;;;3.60;2.50;;;;;;;17.43;100.00;96654.56;5159967;27;20069;-54
2022/09/20 03:24:29;;;;;;;3.10;2.40;;;;;;;16.69;100.00;96659.69;5156706;27;20145;-54
2022/09/20 03:27:04;;;;;;;3.88;2.40;;;;;;;16.49;100.00;96667.34;5156714;27;20085;-50
2022/09/20 03:29:42;;;;;;;3.45;2.60;;;;;;;16.48;100.00;96661.19;5159220;27;20088;-56
2022/09/20 03:32:22;;;;;;;2.72;2.35;;;;;;;16.16;100.00;96656.03;5157266;27;20085;-52
2022/09/20 03:34:58;;;;;;;5.07;2.60;;;;;;;16.63;100.00;96655.09;5159848;27;20459;-52
2022/09/20 03:37:37;;;;;;;3.67;2.40;;;;;;;16.54;100.00;96657.78;5167539;27;20092;-53
2022/09/20 03:40:47;;;;;;;3.97;2.50;;;;;;;16.43;100.00;96652.88;5150646;27;20122;-53
2022/09/20 03:43:26;;;;;;;4.85;2.55;;;;;;;16.94;100.00;96658.53;5151638;27;20070;-58
2022/09/20 03:46:06;;;;;;;4.68;2.55;;;;;;;16.54;100.00;96662.28;5160218;27;20149;-53
2022/09/20 03:48:54;;;;;;;4.28;2.47;;;;;;;16.33;100.00;96661.09;5156052;27;20077;-54
2022/09/20 03:51:28;;;;;;;4.82;2.55;;;;;;;16.54;100.00;96663.13;5149153;27;20078;-58
2022/09/20 03:54:37;;;;;;;3.10;2.80;;;;;;;16.75;100.00;96667.81;5159797;27;20545;-52
2022/09/20 03:57:37;;;;;;;3.58;2.60;;;;;;;16.45;100.00;96674.84;5153269;27;20077;-53
2022/09/20 04:00:29;;;;;;;;;;;;;;;16.67;100.00;96662.53;5162240;27;20260;-53
2022/09/20 04:03:17;;;;;;;4.03;2.47;;;;;;;16.02;100.00;96666.41;5146731;27;19970;-57
2022/09/20 04:05:54;;;;;;;5.43;2.75;;;;;;;15.44;100.00;96668.41;5179192;27;20046;-57
2022/09/20 04:08:40;;;;;;;3.42;2.97;;;;;;;15.99;100.00;96664.09;5183808;27;20073;-55
2022/09/20 04:11:15;;;;;;;2.70;2.47;;;;;;;16.15;100.00;96671.19;5187916;27;20483;-54
2022/09/20 04:13:51;;;;;;;4.82;2.92;;;;;;;16.14;100.00;96664.22;5179638;27;20456;-55
2022/09/20 04:16:26;;;;;;;3.70;2.83;;;;;;;16.16;100.00;96662.19;5166331;27;20094;-57
2022/09/20 04:18:57;;;;;;;4.05;2.83;;;;;;;16.04;100.00;96668.91;5180631;27;20042;-55
2022/09/20 04:21:29;;;;;;;2.80;2.35;;;;;;;15.86;100.00;96672.66;5190852;27;20061;-57
2022/09/20 04:24:01;;;;;;;3.92;2.78;;;;;;;15.06;100.00;96669.97;5169702;27;20064;-55
2022/09/20 04:26:31;;;;;;;5.45;3.00;;;;;;;16.10;100.00;96666.41;5184811;27;20714;-56
2022/09/20 04:29:13;;;;;;;3.20;2.85;;;;;;;15.95;100.00;96664.63;5178381;27;20097;-55
2022/09/20 04:31:45;;;;;;;5.20;2.85;;;;;;;15.84;100.00;96666.66;5170452;27;20085;-54
2022/09/20 04:34:22;;;;;;;4.00;2.70;;;;;;;15.75;100.00;96662.38;5167869;27;20089;-56
2022/09/20 04:36:56;;;;;;;5.40;2.88;;;;;;;15.89;100.00;96666.13;5175456;27;20499;-55
2022/09/20 04:39:35;;;;;;;8.20;2.80;;;;;;;16.20;100.00;96658.16;5178794;27;20528;-57
2022/09/20 04:42:54;;;;;;;3.88;2.90;;;;;;;16.05;100.00;96665.25;5149575;27;20810;-56
2022/09/20 04:45:55;;;;;;;5.97;3.05;;;;;;;15.55;100.00;96669.88;5069500;28;20403;-59
2022/09/20 04:48:55;;;;;;;4.70;2.53;;;;;;;15.79;100.00;96676.97;5075973;28;20059;-60
2022/09/20 04:51:57;;;;;;;6.00;2.67;;;;;;;16.12;100.00;96674.19;5190161;27;20082;-56
2022/09/20 04:54:51;;;;;;;6.50;2.92;;;;;;;15.76;100.00;96682.66;5130931;27;20076;-55
2022/09/20 04:57:41;;;;;;;5.50;2.80;;;;;;;15.62;100.00;96678.84;5172663;27;20070;-56
2022/09/20 05:00:13;;;;;;;3.10;2.80;;;;;;;15.30;100.00;96671.75;5184694;27;20088;-55
2022/09/20 05:03:28;;;;;;;4.10;2.70;;;;;;;15.27;100.00;96676.59;5174739;27;20093;-57
2022/09/20 05:06:43;;;;;;;4.18;3.00;;;;;;;15.92;100.00;96679.09;5158321;27;20038;-57
2022/09/20 05:09:45;;;;;;;3.53;3.15;;;;;;;16.12;100.00;96679.50;5087519;28;20043;-56
2022/09/20 05:12:36;;;;;;;3.00;2.70;;;;;;;15.81;100.00;96688.28;5145561;27;20411;-53
2022/09/20 05:15:12;;;;;;;2.72;2.53;;;;;;;16.36;100.00;96687.34;5157450;27;20099;-56
2022/09/20 05:17:58;;;;;;;4.85;2.63;;;;;;;16.28;100.00;96692.75;5175326;27;20069;-59
2022/09/20 05:20:46;;;;;;;4.43;3.10;;;;;;;16.09;100.00;96690.50;5174391;27;20085;-55
2022/09/20 05:23:27;;;;;;;3.90;2.97;;;;;;;16.16;100.00;96688.78;5174265;27;20508;-57
2022/09/20 05:26:12;;;;;;;4.68;2.90;;;;;;;16.19;100.00;96693.78;5173768;27;20084;-55
2022/09/20 05:28:50;;;;;;;4.47;3.03;;;;;;;15.60;100.00;96698.63;5193242;27;20080;-58
2022/09/20 05:31:24;;;;;;;4.22;2.85;;;;;;;16.33;100.00;96694.88;5194036;27;20082;-58
2022/09/20 05:33:57;;;;;;;4.13;2.80;;;;;;;16.00;100.00;96702.16;5187651;27;20507;-57
2022/09/20 05:36:31;;;;;;;4.97;2.92;;;;;;;16.34;100.00;96704.50;5179851;27;20065;-56
2022/09/20 05:39:12;;;;;;;6.18;3.00;;;;;;;15.28;100.00;96713.63;5180230;27;20085;-56
2022/09/20 05:41:44;;;;;;;5.47;2.80;;;;;;;16.37;100.00;96702.31;5168096;27;20066;-56
2022/09/20 05:44:27;;;;;;;3.72;2.92;;;;;;;16.36;100.00;96699.84;5184318;27;20492;-53
2022/09/20 05:47:03;;;;;;;5.72;2.90;;;;;;;15.79;100.00;96705.41;5183362;27;20096;-55
2022/09/20 05:49:41;;;;;;;4.47;2.88;;;;;;;16.34;100.00;96699.19;5183865;27;20146;-56
2022/09/20 05:52:35;;;;;;;5.13;2.80;;;;;;;16.28;100.00;96708.72;5173325;27;20104;-59
2022/09/20 05:55:28;;;;;;;5.47;3.20;;;;;;;15.71;100.00;96708.09;5176982;27;20077;-58
2022/09/20 05:58:16;;;;;;;6.25;3.20;;;;;;;16.69;100.00;96715.59;5181281;27;20479;-57
2022/09/20 06:00:48;;;;;;;4.60;2.80;;;;;;;15.88;100.00;96718.50;5181740;27;20082;-55
2022/09/20 06:03:26;;;;;;;5.45;3.63;;;;;;;16.96;100.00;96715.09;5182458;27;20088;-58
2022/09/20 06:06:01;;;;;;;7.95;3.53;;;;;;;17.02;100.00;96719.72;5184875;27;20073;-54
2022/09/20 06:08:59;;;;;;;4.45;2.95;;;;;;;16.82;100.00;96721.22;5176815;27;20076;-57
2022/09/20 06:11:53;;;;;;;4.68;3.17;;;;;;;16.91;100.00;96730.00;5168520;27;20076;-57
2022/09/20 06:14:35;;;;;;;3.75;2.90;;;;;;;16.33;100.00;96732.13;5183378;27;20081;-58
2022/09/20 06:17:10;;;;;;;4.45;2.85;;;;;;;16.59;100.00;96731.84;5185200;27;20065;-54
2022/09/20 06:19:44;;;;;;;3.40;3.10;;;;;;;16.72;100.00;96732.06;5186271;27;20089;-57
2022/09/20 06:22:16;;;;;;;6.25;3.20;;;;;;;16.29;100.00;96728.97;5182786;27;20073;-55
2022/09/20 06:24:48;;;;;;;5.00;3.17;;;;;;;16.29;100.00;96734.31;5193552;27;20519;-58
2022/09/20 06:27:20;;;;;;;4.20;3.50;;;;;;;16.36;100.00;96726.47;5186622;27;20084;-54
2022/09/20 06:29:53;;;;;;;6.75;3.88;;;;;;;16.65;100.00;96719.63;5174952;27;20049;-58
2022/09/20 06:32:21;;;;;;;5.80;3.25;;;;;;;15.66;100.00;96728.06;5181387;27;20080;-58
2022/09/20 06:34:51;;;;;;;10.25;3.35;;;;;;;16.49;100.00;96725.91;5180886;27;20081;-56
2022/09/20 06:43:19;;;;;;;7.55;3.80;;;;;;;16.81;100.00;96731.03;5169417;27;20065;-56
2022/09/20 06:45:48;;;;;;;4.72;3.47;;;;;;;16.86;100.00;96733.16;5175314;27;20057;-58
2022/09/20 06:48:20;;;;;;;6.47;3.60;;;;;;;17.03;100.00;96737.41;5153810;27;20085;-58
2022/09/20 06:50:51;;;;;;;5.82;3.47;;;;;;;17.84;100.00;96736.84;5172200;27;20169;-58
2022/09/20 06:53:26;;;;;;;5.03;3.22;;;;;;;16.64;100.00;96745.44;5159504;27;20042;-55
2022/09/20 06:55:55;;;;;;;5.40;3.05;;;;;;;16.63;100.00;96750.94;5188378;27;20065;-55
2022/09/20 06:58:25;;;;;;;5.50;3.40;;;;;;;17.63;100.00;96743.69;5181329;27;20084;-58
2022/09/20 07:00:54;;;;;;;10.30;3.50;;;;;;;17.98;100.00;96744.84;5168487;27;20086;-52
2022/09/20 07:03:22;;;;;;;8.13;3.80;;;;;;;18.30;100.00;96748.16;5173437;27;20034;-56
2022/09/20 07:05:50;;;;;;;8.02;3.20;;;;;;;17.76;100.00;96746.59;5177103;27;20531;-57
2022/09/20 07:08:19;;;;;;;7.20;3.58;;;;;;;18.98;100.00;96738.88;5183639;27;20077;-54
2022/09/20 07:10:47;;;;;;;5.03;3.45;;;;;;;18.33;100.00;96744.28;5173264;27;20078;-52
2022/09/20 07:13:18;;;;;;;6.30;3.58;;;;;;;18.27;100.00;96746.69;5171584;27;20073;-55
2022/09/20 07:15:47;;;;;;;7.88;3.60;;;;;;;17.66;100.00;96747.84;5172054;27;20542;-57
2022/09/20 07:18:16;;;;;;;9.57;3.30;;;;;;;17.32;100.00;96749.97;5173021;27;20461;-54
2022/09/20 07:20:44;;;;;;;7.60;2.95;;;;;;;17.97;100.00;96748.53;5172157;27;20070;-56
2022/09/20 07:23:14;;;;;;;7.10;3.30;;;;;;;17.76;100.00;96746.59;5191108;27;20084;-56
2022/09/20 07:25:43;;;;;;;5.72;2.65;;;;;;;18.33;100.00;96745.09;5192032;27;20077;-53
2022/09/20 07:28:11;;;;;;;5.40;2.45;;;;;;;18.95;100.00;96739.25;5183472;27;20080;-52
2022/09/20 07:30:39;;;;;;;5.82;2.70;;;;;;;18.91;100.00;96755.88;5178778;27;20291;-55
2022/09/20 07:33:10;;;;;;;6.63;2.60;;;;;;;19.23;100.00;96751.88;5169445;27;20739;-57
2022/09/20 07:35:40;;;;;;;4.60;2.60;;;;;;;19.03;100.00;96754.38;5178242;27;20444;-58
2022/09/20 07:38:09;;;;;;;3.70;2.27;;;;;;;18.28;100.00;96760.88;5165231;27;20100;-57
2022/09/20 07:40:37;;;;;;;8.70;2.95;;;;;;;19.02;100.00;96754.53;5170858;27;20464;-57
2022/09/20 07:43:06;;;;;;;6.45;2.75;;;;;;;19.17;100.00;96747.31;5178854;27;20512;-58
2022/09/20 07:45:37;;;;;;;5.88;2.47;;;;;;;18.24;100.00;96764.94;5188237;27;20080;-57
2022/09/20 07:48:08;;;;;;;6.95;2.67;;;;;;;19.40;100.00;96752.44;5158714;27;20042;-56
2022/09/20 07:50:38;;;;;;;6.93;2.60;;;;;;;20.14;100.00;96747.44;5171630;27;20092;-54
2022/09/20 07:53:06;;;;;;;6.23;2.70;;;;;;;18.93;100.00;96753.84;5172731;27;20423;-59
2022/09/20 07:55:34;;;;;;;5.38;2.22;;;;;;;18.46;100.00;96771.16;5158981;27;20085;-58
2022/09/20 07:58:03;;;;;;;6.53;3.05;;;;;;;18.34;100.00;96760.13;5157999;27;20065;-54
2022/09/20 08:00:31;;;;;;;6.03;2.78;;;;;;;19.43;100.00;96758.22;5175872;27;20424;-53
2022/09/20 08:03:00;;;;;;;5.88;2.88;;;;;;;18.65;100.00;96764.38;5174264;27;20073;-55
2022/09/20 08:05:28;;;;;;;5.50;2.53;;;;;;;18.85;100.00;96753.97;5170656;27;20440;-58
2022/09/20 08:07:59;;;;;;;8.90;2.72;;;;;;;18.63;100.00;96769.94;5180853;27;20174;-54
2022/09/20 08:10:28;;;;;;;6.53;2.80;;;;;;;18.28;100.00;96771.53;5178620;27;20425;-58
2022/09/20 08:12:56;;;;;;;5.18;2.80;;;;;;;18.73;100.00;96778.50;5174760;27;20093;-54
2022/09/20 08:15:45;;;;;;;5.82;2.60;;;;;;;18.63;100.00;96777.94;5170609;27;20512;-54
2022/09/20 08:18:14;;;;;;;4.60;2.63;;;;;;;18.07;100.00;96779.47;5171460;27;20503;-56
2022/09/20 08:20:42;;;;;;;7.00;2.53;;;;;;;19.65;100.00;96763.59;5170792;27;20065;-58
2022/09/20 08:23:12;;;;;;;3.75;2.50;;;;;;;18.90;100.00;96772.94;5185847;27;20074;-57
2022/09/20 08:25:51;;;;;;;7.68;3.00;;;;;;;18.77;100.00;96770.94;5170611;27;20065;-56
2022/09/20 08:28:19;;;;;;;5.47;2.88;;;;;;;18.48;100.00;96780.66;5176709;27;20078;-59
2022/09/20 08:30:47;;;;;;;4.13;2.28;;;;;;;18.89;100.00;96768.59;5170981;27;20070;-59
2022/09/20 08:33:16;;;;;;;5.60;2.10;;;;;;;18.79;100.00;96778.75;5171868;27;20082;-56
2022/09/20 08:35:48;;;;;;;4.53;2.00;;;;;;;19.17;100.00;96774.88;5180923;27;20081;-54
2022/09/20 08:38:18;;;;;;;4.18;2.10;;;;;;;19.38;100.00;96773.22;5176037;27;20073;-57
2022/09/20 08:41:11;;;;;;;5.05;2.20;;;;;;;20.51;88.03;96766.81;5178779;27;20088;-56
2022/09/20 08:43:42;;;;;;;4.95;1.98;;;;;;;20.00;89.73;96769.81;5181017;27;20507;-59
2022/09/20 08:46:16;;;;;;;8.85;2.00;;;;;;;20.13;84.79;96772.56;5188391;27;20095;-58
2022/09/20 08:48:51;;;;;;;3.70;1.95;;;;;;;20.65;80.82;96772.19;5177003;27;20096;-59
2022/09/20 08:51:20;;;;;;;4.90;2.00;;;;;;;20.63;83.76;96764.38;5189152;27;20854;-60
2022/09/20 08:53:53;;;;;;;4.75;1.88;;;;;;;20.58;74.39;96764.97;5193612;27;20088;-58
2022/09/20 08:56:22;;;;;;;5.47;2.10;;;;;;;20.27;76.47;96760.06;5178881;27;20131;-56
2022/09/20 08:58:52;;;;;;;6.28;2.63;;;;;;;19.95;78.44;96763.38;5180281;27;20093;-58
2022/09/20 09:01:22;;;;;;;6.88;2.00;;;;;;;19.82;86.32;96769.44;5179032;27;20074;-58
2022/09/20 09:03:51;;;;;;;3.88;1.75;;;;;;;19.30;84.24;96773.31;5182132;27;20084;-55
2022/09/20 09:06:21;;;;;;;4.10;2.30;;;;;;;18.65;100.00;96778.59;5178996;27;20089;-53
2022/09/20 09:08:52;;;;;;;5.53;2.50;;;;;;;19.22;100.00;96779.63;5183468;27;20100;-56
2022/09/20 09:11:22;;;;;;;5.80;2.58;;;;;;;19.30;100.00;96778.66;5179141;27;20520;-60
2022/09/20 09:13:53;;;;;;;8.18;2.70;;;;;;;19.87;100.00;96769.72;5190781;27;20113;-56
2022/09/20 09:16:24;;;;;;;6.18;2.50;;;;;;;20.30;85.58;96765.03;5174884;27;20065;-56
2022/09/20 09:19:26;;;;;;;5.40;2.20;;;;;;;19.86;77.80;96768.06;5173302;27;20086;-56
2022/09/20 09:22:02;;;;;;;6.03;2.47;;;;;;;20.58;76.17;96761.47;5178822;27;20045;-55
2022/09/20 09:24:31;;;;;;;5.43;2.40;;;;;;;21.15;67.96;96759.34;5190971;27;20606;-60
2022/09/20 09:27:09;;;;;;;6.60;2.17;;;;;;;19.77;79.67;96763.88;5189230;27;20093;-59
2022/09/20 09:29:49;;;;;;;6.50;2.20;;;;;;;20.02;84.33;96754.34;5174152;27;20464;-56
2022/09/20 09:32:23;;;;;;;5.28;2.03;;;;;;;20.56;74.07;96758.97;5175425;27;20737;-57
2022/09/20 09:34:51;;;;;;;6.97;2.00;;;;;;;20.19;75.64;96749.50;5184329;27;20057;-55
2022/09/20 09:37:25;;;;;;;3.83;2.03;;;;;;;19.25;96.05;96747.16;5193903;27;20081;-48
2022/09/20 09:40:11;;;;;;;5.63;2.33;;;;;;;19.24;96.93;96763.41;5192582;27;20339;-59
2022/09/20 09:42:49;;;;;;;7.60;2.60;;;;;;;20.72;88.44;96743.59;5177015;27;20086;-55
2022/09/20 09:45:30;;;;;;;4.53;2.28;;;;;;;20.71;85.45;96753.47;5186455;27;20553;-58
2022/09/20 09:48:01;;;;;;;5.53;2.17;;;;;;;20.42;88.29;96759.09;5177009;27;20093;-54
2022/09/20 09:50:30;;;;;;;6.15;2.78;;;;;;;20.18;91.07;96750.53;5182362;27;20089;-57
2022/09/20 09:53:01;;;;;;;8.80;2.55;;;;;;;20.70;85.52;96751.00;5176138;27;20081;-54
2022/09/20 09:55:42;;;;;;;7.10;2.63;;;;;;;21.35;83.93;96740.66;5177219;27;20082;-56
2022/09/20 09:58:12;;;;;;;;;;;;;;;19.95;71.31;96752.66;5177720;27;20081;-57
2022/09/20 10:00:45;;;;;;;3.70;1.40;;;;;;;19.49;68.88;96753.94;5187127;27;19969;-56
2022/09/20 10:03:22;;;;;;;7.68;1.95;;;;;;;19.21;69.23;96754.75;5178708;27;20065;-54
2022/09/20 10:06:07;;;;;;;3.08;1.45;;;;;;;19.39;71.13;96748.94;5166348;27;20465;-55
2022/09/20 10:08:44;;;;;;;4.43;1.60;;;;;;;19.48;74.48;96748.78;5176369;27;20086;-54
2022/09/20 10:11:24;;;;;;;7.18;2.20;;;;;;;19.59;73.28;96748.28;5177811;27;20077;-59
2022/09/20 10:14:04;;;;;;;3.85;1.70;;;;;;;20.18;71.24;96741.69;5188380;27;20077;-56
2022/09/20 10:16:56;;;;;;;5.45;2.20;;;;;;;20.17;67.65;96740.03;5169078;27;20069;-54
2022/09/20 10:19:37;;;;;;;8.50;2.05;;;;;;;20.60;68.80;96730.75;5193860;27;20089;-56
2022/09/20 10:22:10;;;;;;;4.30;1.80;;;;;;;21.67;57.58;96745.16;5184319;27;20078;-59
2022/09/20 10:24:46;;;;;;;6.07;1.70;;;;;;;21.12;55.31;96735.63;5172828;27;20093;-54
2022/09/20 10:27:30;;;;;;;4.95;1.90;;;;;;;21.10;56.30;96735.84;5174440;27;20082;-57
2022/09/20 10:30:05;;;;;;;5.13;1.77;;;;;;;21.25;53.87;96723.06;5186778;27;20562;-59
2022/09/20 10:32:46;;;;;;;5.13;1.75;;;;;;;21.53;53.64;96724.75;5182894;27;20554;-55
2022/09/20 10:35:23;;;;;;;3.53;1.52;;;;;;;19.88;53.71;96734.69;5183464;27;20081;-55
2022/09/20 10:38:00;;;;;;;4.95;1.50;;;;;;;20.08;55.65;96737.50;5173318;27;20455;-56
2022/09/20 10:43:29;;;;;;;4.47;1.40;;;;;;;20.86;50.71;96726.53;5183723;27;20081;-56
2022/09/20 10:46:05;;;;;;;2.55;1.08;;;;;;;19.43;56.63;96739.50;5178887;27;20089;-56
2022/09/20 10:49:01;;;;;;;5.95;1.60;;;;;;;20.45;55.03;96732.75;5176815;27;20073;-57
2022/09/20 10:51:40;;;;;;;2.75;1.30;;;;;;;20.94;52.23;96738.91;5175350;27;20058;-59
2022/09/20 10:54:19;;;;;;;5.18;1.50;;;;;;;21.68;47.96;96741.47;5189790;27;20092;-54
2022/09/20 10:56:51;;;;;;;5.97;1.67;;;;;;;21.54;47.96;96740.66;5178480;27;20066;-59
2022/09/20 10:59:30;;;;;;;5.97;1.35;;;;;;;21.71;46.62;96745.56;5177268;27;20084;-53
2022/09/20 11:02:17;;;;;;;1.55;0.90;;;;;;;21.56;46.50;96741.25;5179427;27;20081;-54
2022/09/20 11:04:57;;;;;;;3.25;1.30;;;;;;;21.32;45.19;96737.28;5178147;27;20085;-57
2022/09/20 11:07:35;;;;;;;2.97;1.25;;;;;;;21.22;47.02;96744.91;5174542;27;20077;-57
2022/09/20 11:10:07;;;;;;;4.15;1.20;;;;;;;21.12;47.69;96749.84;5180683;27;20081;-56
2022/09/20 11:12:38;;;;;;;3.38;1.25;;;;;;;21.53;47.12;96738.97;5188897;27;20085;-53
2022/09/20 11:15:14;;;;;;;;;;;;;;;21.52;49.67;96731.97;5175096;27;20077;-57
2022/09/20 11:17:45;;;;;;;4.90;1.42;;;;;;;21.35;48.85;96738.78;5172188;27;19964;-57
2022/09/20 11:20:19;;;;;;;4.30;1.30;;;;;;;21.68;48.68;96744.16;5185726;27;20081;-56
2022/09/20 11:22:50;;;;;;;3.60;1.38;;;;;;;21.23;46.16;96749.28;5171354;27;20086;-58
2022/09/20 11:25:21;;;;;;;4.70;1.40;;;;;;;22.23;45.84;96743.88;5172036;27;20073;-57
2022/09/20 11:28:01;;;;;;;7.05;1.40;;;;;;;22.32;45.20;96741.78;5176585;27;20076;-56
2022/09/20 11:30:33;;;;;;;3.65;1.30;;;;;;;22.22;44.51;96745.72;5171996;27;20554;-55
2022/09/20 11:33:04;;;;;;;5.30;1.50;;;;;;;21.31;44.51;96748.25;5171517;27;20082;-55
2022/09/20 11:35:34;;;;;;;3.08;1.15;;;;;;;22.26;43.76;96748.81;5175895;27;20568;-58
2022/09/20 11:38:13;;;;;;;5.95;1.60;;;;;;;22.07;47.15;96749.69;5184611;27;20074;-55
2022/09/20 11:40:46;;;;;;;5.05;1.80;;;;;;;22.39;46.44;96747.94;5178244;27;20073;-56
2022/09/20 11:43:15;;;;;;;5.45;1.83;;;;;;;22.30;46.99;96754.59;5176960;27;20082;-59
2022/09/20 11:45:48;;;;;;;4.38;1.75;;;;;;;21.86;47.59;96753.44;5168762;27;20081;-53
2022/09/20 11:48:23;;;;;;;6.13;1.77;;;;;;;21.84;46.52;96753.63;5179222;27;20037;-56
2022/09/20 11:51:16;;;;;;;7.43;1.77;;;;;;;21.57;47.95;96742.06;5178069;27;20089;-58
2022/09/20 11:53:58;;;;;;;4.38;1.70;;;;;;;22.16;46.61;96740.38;5167839;27;20081;-53
2022/09/20 11:56:29;;;;;;;4.82;1.30;;;;;;;22.08;46.51;96730.66;5175100;27;20061;-53
2022/09/20 11:58:59;;;;;;;5.50;1.42;;;;;;;21.18;47.01;96732.13;5171594;27;20092;-55
2022/09/20 12:01:31;;;;;;;4.10;1.63;;;;;;;20.38;49.00;96737.25;5183856;27;20100;-57
2022/09/20 12:04:03;;;;;;;5.22;1.75;;;;;;;21.72;47.12;96740.03;5165793;27;20082;-56
2022/09/20 12:06:59;;;;;;;5.03;1.40;;;;;;;20.23;48.59;96739.22;5172320;27;20085;-56
2022/09/20 12:09:35;;;;;;;6.55;1.83;;;;;;;21.99;45.83;96735.44;5166640;27;20081;-58
2022/09/20 12:12:19;;;;;;;3.47;1.60;;;;;;;21.45;47.51;96728.47;5171024;27;20543;-55
2022/09/20 12:14:54;;;;;;;5.28;1.65;;;;;;;21.21;48.70;96729.03;5180285;27;20042;-57
2022/09/20 12:18:08;;;;;;;4.43;1.55;;;;;;;20.82;49.74;96730.63;5190002;27;20081;-56
2022/09/20 12:21:01;;;;;;;5.30;1.90;;;;;;;21.10;49.92;96723.25;5090777;28;20102;-55
2022/09/20 12:24:00;;;;;;;10.52;2.20;;;;;;;21.93;48.67;96716.66;5188495;27;20057;-57
2022/09/20 12:26:43;;;;;;;3.88;1.92;;;;;;;21.44;49.23;96715.25;5178491;27;20092;-56